sensor_id;sensor_type;location;lat;lon;timestamp;pressure;altitude;pressure_sealevel;temperature;humidity
21401;BME280;18038;50.166;18.908;2023-01-19T00:02:07;96579.56;;;-0.80;76.09
21401;BME280;18038;50.166;18.908;2023-01-19T00:05:15;96582.19;;;-0.80;76.53
21401;BME280;18038;50.166;18.908;2023-01-19T00:08:23;96589.84;;;-0.86;76.28
21401;BME280;18038;50.166;18.908;2023-01-19T00:11:30;96586.91;;;-0.92;76.93
21401;BME280;18038;50.166;18.908;2023-01-19T00:14:37;96594.72;;;-1.00;77.01
21401;BME280;18038;50.166;18.908;2023-01-19T00:17:43;96600.19;;;-1.19;77.76
21401;BME280;18038;50.166;18.908;2023-01-19T00:20:49;96601.78;;;-1.26;78.26
21401;BME280;18038;50.166;18.908;2023-01-19T00:23:59;96603.28;;;-1.76;80.40
21401;BME280;18038;50.166;18.908;2023-01-19T00:27:05;96602.25;;;-2.01;81.60
21401;BME280;18038;50.166;18.908;2023-01-19T00:30:13;96604.88;;;-2.01;82.29
21401;BME280;18038;50.166;18.908;2023-01-19T00:33:19;96591.28;;;-2.05;82.28
21401;BME280;18038;50.166;18.908;2023-01-19T00:36:26;96596.38;;;-2.21;82.76
21401;BME280;18038;50.166;18.908;2023-01-19T00:39:35;96590.84;;;-2.18;82.77
21401;BME280;18038;50.166;18.908;2023-01-19T00:42:42;96601.13;;;-2.16;82.83
21401;BME280;18038;50.166;18.908;2023-01-19T00:45:50;96603.81;;;-2.08;82.88
21401;BME280;18038;50.166;18.908;2023-01-19T00:48:56;96596.28;;;-1.93;82.16
21401;BME280;18038;50.166;18.908;2023-01-19T00:52:03;96602.56;;;-1.86;81.83
21401;BME280;18038;50.166;18.908;2023-01-19T00:55:14;96596.50;;;-1.87;81.44
21401;BME280;18038;50.166;18.908;2023-01-19T00:58:21;96591.66;;;-1.99;81.75
21401;BME280;18038;50.166;18.908;2023-01-19T01:01:28;96577.50;;;-1.89;81.97
21401;BME280;18038;50.166;18.908;2023-01-19T01:04:47;96572.69;;;-1.75;81.34
21401;BME280;18038;50.166;18.908;2023-01-19T01:07:57;96574.75;;;-1.61;80.68
21401;BME280;18038;50.166;18.908;2023-01-19T01:11:06;96574.03;;;-1.45;80.38
21401;BME280;18038;50.166;18.908;2023-01-19T01:14:12;96574.69;;;-1.43;79.28
21401;BME280;18038;50.166;18.908;2023-01-19T01:17:19;96572.88;;;-1.69;79.99
21401;BME280;18038;50.166;18.908;2023-01-19T01:20:28;96572.47;;;-1.82;80.40
21401;BME280;18038;50.166;18.908;2023-01-19T01:23:36;96577.00;;;-1.66;79.73
21401;BME280;18038;50.166;18.908;2023-01-19T01:26:46;96580.66;;;-1.59;79.25
21401;BME280;18038;50.166;18.908;2023-01-19T01:29:52;96591.44;;;-1.62;78.90
21401;BME280;18038;50.166;18.908;2023-01-19T01:32:58;96588.84;;;-1.80;79.71
21401;BME280;18038;50.166;18.908;2023-01-19T01:36:06;96583.44;;;-2.05;80.37
21401;BME280;18038;50.166;18.908;2023-01-19T01:39:14;96597.69;;;-2.17;81.57
21401;BME280;18038;50.166;18.908;2023-01-19T01:42:30;96580.75;;;-2.13;81.86
21401;BME280;18038;50.166;18.908;2023-01-19T01:45:40;96558.53;;;-2.27;81.79
21401;BME280;18038;50.166;18.908;2023-01-19T01:48:52;96565.25;;;-2.24;82.01
21401;BME280;18038;50.166;18.908;2023-01-19T01:52:02;96580.50;;;-2.37;82.53
21401;BME280;18038;50.166;18.908;2023-01-19T01:55:10;96577.97;;;-2.47;83.10
21401;BME280;18038;50.166;18.908;2023-01-19T01:58:22;96573.88;;;-2.50;83.41
21401;BME280;18038;50.166;18.908;2023-01-19T02:01:28;96574.44;;;-2.56;83.44
21401;BME280;18038;50.166;18.908;2023-01-19T02:04:51;96573.88;;;-2.50;83.47
21401;BME280;18038;50.166;18.908;2023-01-19T02:08:03;96575.34;;;-2.65;83.92
21401;BME280;18038;50.166;18.908;2023-01-19T02:11:28;96576.19;;;-2.74;84.42
21401;BME280;18038;50.166;18.908;2023-01-19T02:14:51;96581.69;;;-2.68;84.42
21401;BME280;18038;50.166;18.908;2023-01-19T02:17:58;96582.81;;;-2.52;84.08
21401;BME280;18038;50.166;18.908;2023-01-19T02:21:11;96587.97;;;-2.42;83.16
21401;BME280;18038;50.166;18.908;2023-01-19T02:24:26;96564.28;;;-2.41;82.82
21401;BME280;18038;50.166;18.908;2023-01-19T02:27:33;96587.22;;;-1.99;82.32
21401;BME280;18038;50.166;18.908;2023-01-19T02:30:42;96589.53;;;-1.78;81.26
21401;BME280;18038;50.166;18.908;2023-01-19T02:33:49;96593.81;;;-1.69;80.36
21401;BME280;18038;50.166;18.908;2023-01-19T02:37:00;96608.63;;;-1.60;79.90
21401;BME280;18038;50.166;18.908;2023-01-19T02:40:16;96599.19;;;-1.52;79.39
21401;BME280;18038;50.166;18.908;2023-01-19T02:43:29;96607.88;;;-1.52;78.74
21401;BME280;18038;50.166;18.908;2023-01-19T02:46:36;96605.63;;;-1.47;78.99
21401;BME280;18038;50.166;18.908;2023-01-19T02:49:52;96611.03;;;-1.40;78.89
21401;BME280;18038;50.166;18.908;2023-01-19T02:53:11;96621.56;;;-1.32;78.17
21401;BME280;18038;50.166;18.908;2023-01-19T02:56:52;96615.16;;;-1.38;78.08
21401;BME280;18038;50.166;18.908;2023-01-19T03:00:29;96617.78;;;-1.38;78.62
21401;BME280;18038;50.166;18.908;2023-01-19T03:03:52;96620.72;;;-1.41;78.26
21401;BME280;18038;50.166;18.908;2023-01-19T03:07:09;96616.81;;;-1.37;78.40
21401;BME280;18038;50.166;18.908;2023-01-19T03:10:28;96600.88;;;-1.43;78.10
21401;BME280;18038;50.166;18.908;2023-01-19T03:13:48;96609.91;;;-1.38;78.15
21401;BME280;18038;50.166;18.908;2023-01-19T03:17:04;96608.28;;;-1.39;78.81
21401;BME280;18038;50.166;18.908;2023-01-19T03:20:18;96611.31;;;-1.25;78.01
21401;BME280;18038;50.166;18.908;2023-01-19T03:23:34;96606.13;;;-1.17;78.21
21401;BME280;18038;50.166;18.908;2023-01-19T03:26:46;96609.91;;;-1.11;77.54
21401;BME280;18038;50.166;18.908;2023-01-19T03:30:07;96617.94;;;-1.05;77.06
21401;BME280;18038;50.166;18.908;2023-01-19T03:33:24;96620.75;;;-1.06;77.14
21401;BME280;18038;50.166;18.908;2023-01-19T03:36:39;96624.84;;;-1.04;77.24
21401;BME280;18038;50.166;18.908;2023-01-19T03:39:48;96621.22;;;-1.11;77.25
21401;BME280;18038;50.166;18.908;2023-01-19T03:42:56;96625.34;;;-1.00;77.73
21401;BME280;18038;50.166;18.908;2023-01-19T03:46:09;96618.03;;;-0.97;77.01
21401;BME280;18038;50.166;18.908;2023-01-19T03:49:19;96631.41;;;-1.00;76.86
21401;BME280;18038;50.166;18.908;2023-01-19T03:52:27;96636.28;;;-1.05;77.41
21401;BME280;18038;50.166;18.908;2023-01-19T03:55:38;96627.78;;;-1.07;77.71
21401;BME280;18038;50.166;18.908;2023-01-19T03:58:45;96629.88;;;-1.10;78.03
21401;BME280;18038;50.166;18.908;2023-01-19T04:01:55;96645.09;;;-1.14;77.83
21401;BME280;18038;50.166;18.908;2023-01-19T04:05:01;96643.75;;;-1.18;78.14
21401;BME280;18038;50.166;18.908;2023-01-19T04:08:09;96651.69;;;-1.10;78.04
21401;BME280;18038;50.166;18.908;2023-01-19T04:11:16;96654.97;;;-1.08;78.22
21401;BME280;18038;50.166;18.908;2023-01-19T04:14:23;96647.13;;;-1.00;77.71
21401;BME280;18038;50.166;18.908;2023-01-19T04:17:33;96649.13;;;-1.02;77.99
21401;BME280;18038;50.166;18.908;2023-01-19T04:20:40;96649.81;;;-0.92;77.24
21401;BME280;18038;50.166;18.908;2023-01-19T04:23:47;96650.16;;;-0.86;76.85
21401;BME280;18038;50.166;18.908;2023-01-19T04:26:55;96658.00;;;-0.86;77.38
21401;BME280;18038;50.166;18.908;2023-01-19T04:30:02;96656.53;;;-0.89;77.24
21401;BME280;18038;50.166;18.908;2023-01-19T04:33:13;96663.94;;;-0.84;77.09
21401;BME280;18038;50.166;18.908;2023-01-19T04:36:19;96681.22;;;-1.00;76.89
21401;BME280;18038;50.166;18.908;2023-01-19T04:39:25;96681.75;;;-0.96;77.55
21401;BME280;18038;50.166;18.908;2023-01-19T04:42:31;96665.06;;;-0.87;77.04
21401;BME280;18038;50.166;18.908;2023-01-19T04:45:38;96665.41;;;-0.82;77.12
21401;BME280;18038;50.166;18.908;2023-01-19T04:48:49;96671.19;;;-0.78;77.07
21401;BME280;18038;50.166;18.908;2023-01-19T04:51:56;96679.88;;;-0.78;77.00
21401;BME280;18038;50.166;18.908;2023-01-19T04:55:04;96690.50;;;-0.79;76.60
21401;BME280;18038;50.166;18.908;2023-01-19T04:58:12;96695.56;;;-0.86;77.41
21401;BME280;18038;50.166;18.908;2023-01-19T05:01:18;96708.19;;;-0.81;77.11
21401;BME280;18038;50.166;18.908;2023-01-19T05:04:28;96706.75;;;-0.76;76.50
21401;BME280;18038;50.166;18.908;2023-01-19T05:07:34;96697.69;;;-0.81;76.68
21401;BME280;18038;50.166;18.908;2023-01-19T05:10:41;96702.13;;;-0.82;76.81
21401;BME280;18038;50.166;18.908;2023-01-19T05:13:47;96696.22;;;-0.84;77.20
21401;BME280;18038;50.166;18.908;2023-01-19T05:16:54;96697.34;;;-0.86;77.43
21401;BME280;18038;50.166;18.908;2023-01-19T05:20:03;96692.28;;;-0.88;77.19
21401;BME280;18038;50.166;18.908;2023-01-19T05:23:11;96689.44;;;-0.95;77.85
21401;BME280;18038;50.166;18.908;2023-01-19T05:26:17;96689.97;;;-0.91;77.79
21401;BME280;18038;50.166;18.908;2023-01-19T05:29:24;96685.22;;;-0.87;77.56
21401;BME280;18038;50.166;18.908;2023-01-19T05:32:30;96688.31;;;-0.92;78.15
21401;BME280;18038;50.166;18.908;2023-01-19T05:35:40;96678.81;;;-0.93;77.51
21401;BME280;18038;50.166;18.908;2023-01-19T05:38:46;96673.50;;;-1.01;77.84
21401;BME280;18038;50.166;18.908;2023-01-19T05:41:53;96668.94;;;-0.99;78.08
21401;BME280;18038;50.166;18.908;2023-01-19T05:44:59;96657.13;;;-1.03;78.07
21401;BME280;18038;50.166;18.908;2023-01-19T05:48:07;96672.34;;;-1.07;77.81
21401;BME280;18038;50.166;18.908;2023-01-19T05:51:16;96675.09;;;-1.08;78.33
21401;BME280;18038;50.166;18.908;2023-01-19T05:54:22;96670.91;;;-1.01;78.21
21401;BME280;18038;50.166;18.908;2023-01-19T05:57:29;96673.84;;;-1.04;77.96
21401;BME280;18038;50.166;18.908;2023-01-19T06:00:36;96678.75;;;-1.01;78.21
21401;BME280;18038;50.166;18.908;2023-01-19T06:03:42;96676.22;;;-1.11;78.09
21401;BME280;18038;50.166;18.908;2023-01-19T06:06:54;96679.69;;;-1.37;79.09
21401;BME280;18038;50.166;18.908;2023-01-19T06:10:00;96666.13;;;-1.50;79.63
21401;BME280;18038;50.166;18.908;2023-01-19T06:13:07;96677.81;;;-1.44;79.56
21401;BME280;18038;50.166;18.908;2023-01-19T06:16:14;96677.97;;;-1.46;79.48
21401;BME280;18038;50.166;18.908;2023-01-19T06:19:21;96670.78;;;-1.44;79.14
21401;BME280;18038;50.166;18.908;2023-01-19T06:22:30;96685.88;;;-1.38;79.00
21401;BME280;18038;50.166;18.908;2023-01-19T06:25:37;96693.72;;;-1.38;78.66
21401;BME280;18038;50.166;18.908;2023-01-19T06:28:43;96701.97;;;-1.32;79.08
21401;BME280;18038;50.166;18.908;2023-01-19T06:31:51;96693.81;;;-1.47;78.62
21401;BME280;18038;50.166;18.908;2023-01-19T06:34:57;96723.41;;;-1.55;79.25
21401;BME280;18038;50.166;18.908;2023-01-19T06:38:07;96725.34;;;-1.57;79.35
21401;BME280;18038;50.166;18.908;2023-01-19T06:41:15;96728.09;;;-1.59;79.85
21401;BME280;18038;50.166;18.908;2023-01-19T06:44:22;96734.09;;;-1.66;79.66
21401;BME280;18038;50.166;18.908;2023-01-19T06:47:28;96715.31;;;-1.80;79.81
21401;BME280;18038;50.166;18.908;2023-01-19T06:50:36;96761.63;;;-1.62;79.94
21401;BME280;18038;50.166;18.908;2023-01-19T06:53:45;96769.91;;;-1.67;79.93
21401;BME280;18038;50.166;18.908;2023-01-19T06:56:52;96773.94;;;-1.72;80.17
21401;BME280;18038;50.166;18.908;2023-01-19T06:59:58;96785.94;;;-1.70;80.41
21401;BME280;18038;50.166;18.908;2023-01-19T07:03:08;96793.41;;;-1.75;80.53
21401;BME280;18038;50.166;18.908;2023-01-19T07:06:23;96795.31;;;-1.77;80.88
21401;BME280;18038;50.166;18.908;2023-01-19T07:09:32;96801.22;;;-1.93;81.36
21401;BME280;18038;50.166;18.908;2023-01-19T07:12:38;96796.03;;;-2.03;82.31
21401;BME280;18038;50.166;18.908;2023-01-19T07:15:46;96808.38;;;-1.95;82.11
21401;BME280;18038;50.166;18.908;2023-01-19T07:18:52;96808.94;;;-1.91;81.95
21401;BME280;18038;50.166;18.908;2023-01-19T07:21:59;96806.75;;;-1.96;81.99
21401;BME280;18038;50.166;18.908;2023-01-19T07:25:08;96817.97;;;-1.86;81.92
21401;BME280;18038;50.166;18.908;2023-01-19T07:28:15;96827.25;;;-1.91;81.54
21401;BME280;18038;50.166;18.908;2023-01-19T07:31:22;96827.59;;;-2.14;82.54
21401;BME280;18038;50.166;18.908;2023-01-19T07:34:29;96820.88;;;-2.16;82.62
21401;BME280;18038;50.166;18.908;2023-01-19T07:37:36;96830.09;;;-2.12;82.73
21401;BME280;18038;50.166;18.908;2023-01-19T07:40:46;96828.06;;;-2.18;82.93
21401;BME280;18038;50.166;18.908;2023-01-19T07:43:52;96835.47;;;-2.14;82.96
21401;BME280;18038;50.166;18.908;2023-01-19T07:46:59;96826.78;;;-2.14;82.82
21401;BME280;18038;50.166;18.908;2023-01-19T07:50:06;96816.31;;;-2.14;83.24
21401;BME280;18038;50.166;18.908;2023-01-19T07:53:14;96820.06;;;-2.17;83.43
21401;BME280;18038;50.166;18.908;2023-01-19T07:56:23;96845.09;;;-2.14;83.39
21401;BME280;18038;50.166;18.908;2023-01-19T07:59:35;96837.66;;;-2.09;83.20
21401;BME280;18038;50.166;18.908;2023-01-19T08:02:41;96854.88;;;-2.16;83.41
21401;BME280;18038;50.166;18.908;2023-01-19T08:05:49;96839.56;;;-2.02;83.08
21401;BME280;18038;50.166;18.908;2023-01-19T08:08:58;96842.69;;;-1.98;83.04
21401;BME280;18038;50.166;18.908;2023-01-19T08:12:10;96859.91;;;-1.95;82.61
21401;BME280;18038;50.166;18.908;2023-01-19T08:15:16;96866.56;;;-2.11;83.19
21401;BME280;18038;50.166;18.908;2023-01-19T08:18:26;96854.66;;;-1.95;83.04
21401;BME280;18038;50.166;18.908;2023-01-19T08:21:32;96864.44;;;-1.97;82.69
21401;BME280;18038;50.166;18.908;2023-01-19T08:24:41;96862.38;;;-1.94;83.18
21401;BME280;18038;50.166;18.908;2023-01-19T08:27:53;96854.38;;;-1.92;83.17
21401;BME280;18038;50.166;18.908;2023-01-19T08:31:01;96854.44;;;-2.02;82.99
21401;BME280;18038;50.166;18.908;2023-01-19T08:34:22;96849.25;;;-2.21;83.52
21401;BME280;18038;50.166;18.908;2023-01-19T08:37:29;96842.91;;;-2.19;83.91
21401;BME280;18038;50.166;18.908;2023-01-19T08:40:37;96841.19;;;-2.00;83.74
21401;BME280;18038;50.166;18.908;2023-01-19T08:43:48;96853.13;;;-2.16;83.69
21401;BME280;18038;50.166;18.908;2023-01-19T08:46:54;96840.59;;;-2.22;83.71
21401;BME280;18038;50.166;18.908;2023-01-19T08:50:01;96855.38;;;-2.03;83.76
21401;BME280;18038;50.166;18.908;2023-01-19T08:53:09;96850.16;;;-2.03;83.44
21401;BME280;18038;50.166;18.908;2023-01-19T08:56:16;96859.41;;;-2.09;83.85
21401;BME280;18038;50.166;18.908;2023-01-19T08:59:24;96865.59;;;-2.00;83.71
21401;BME280;18038;50.166;18.908;2023-01-19T09:02:32;96882.03;;;-2.17;83.76
21401;BME280;18038;50.166;18.908;2023-01-19T09:05:38;96890.09;;;-2.01;83.86
21401;BME280;18038;50.166;18.908;2023-01-19T09:08:46;96881.03;;;-2.16;83.64
21401;BME280;18038;50.166;18.908;2023-01-19T09:11:53;96890.97;;;-2.20;84.02
21401;BME280;18038;50.166;18.908;2023-01-19T09:15:03;96886.16;;;-2.25;84.25
21401;BME280;18038;50.166;18.908;2023-01-19T09:18:12;96879.34;;;-2.45;84.65
21401;BME280;18038;50.166;18.908;2023-01-19T09:21:21;96905.75;;;-2.29;84.85
21401;BME280;18038;50.166;18.908;2023-01-19T09:24:27;96903.94;;;-2.28;84.59
21401;BME280;18038;50.166;18.908;2023-01-19T09:27:34;96897.59;;;-2.26;84.55
21401;BME280;18038;50.166;18.908;2023-01-19T09:30:43;96897.06;;;-2.29;84.86
21401;BME280;18038;50.166;18.908;2023-01-19T09:33:51;96881.50;;;-2.31;85.06
21401;BME280;18038;50.166;18.908;2023-01-19T09:36:57;96894.41;;;-2.19;85.23
21401;BME280;18038;50.166;18.908;2023-01-19T09:40:05;96871.22;;;-2.42;85.02
21401;BME280;18038;50.166;18.908;2023-01-19T09:43:25;96881.91;;;-2.26;84.68
21401;BME280;18038;50.166;18.908;2023-01-19T09:46:47;96895.00;;;-2.26;84.79
21401;BME280;18038;50.166;18.908;2023-01-19T09:49:57;96877.13;;;-2.40;84.39
21401;BME280;18038;50.166;18.908;2023-01-19T09:53:15;96863.38;;;-2.42;84.40
21401;BME280;18038;50.166;18.908;2023-01-19T09:56:28;96855.25;;;-2.39;84.51
21401;BME280;18038;50.166;18.908;2023-01-19T09:59:36;96858.81;;;-2.40;84.39
21401;BME280;18038;50.166;18.908;2023-01-19T10:02:55;96859.09;;;-2.43;84.73
21401;BME280;18038;50.166;18.908;2023-01-19T10:06:13;96864.31;;;-2.33;84.58
21401;BME280;18038;50.166;18.908;2023-01-19T10:09:27;96857.59;;;-2.46;84.29
21401;BME280;18038;50.166;18.908;2023-01-19T10:12:47;96861.75;;;-2.53;84.67
21401;BME280;18038;50.166;18.908;2023-01-19T10:16:20;96868.91;;;-2.45;84.75
21401;BME280;18038;50.166;18.908;2023-01-19T10:19:42;96863.78;;;-2.37;84.60
21401;BME280;18038;50.166;18.908;2023-01-19T10:22:53;96868.84;;;-2.26;84.30
21401;BME280;18038;50.166;18.908;2023-01-19T10:26:09;96861.06;;;-2.45;84.50
21401;BME280;18038;50.166;18.908;2023-01-19T10:29:27;96859.78;;;-2.31;84.60
21401;BME280;18038;50.166;18.908;2023-01-19T10:32:38;96853.25;;;-2.17;84.29
21401;BME280;18038;50.166;18.908;2023-01-19T10:35:48;96861.94;;;-2.27;83.96
21401;BME280;18038;50.166;18.908;2023-01-19T10:38:57;96849.25;;;-2.21;83.75
21401;BME280;18038;50.166;18.908;2023-01-19T10:42:08;96848.31;;;-2.20;83.67
21401;BME280;18038;50.166;18.908;2023-01-19T10:45:19;96851.41;;;-2.07;83.54
21401;BME280;18038;50.166;18.908;2023-01-19T10:48:36;96845.09;;;-2.14;83.20
21401;BME280;18038;50.166;18.908;2023-01-19T10:51:48;96838.06;;;-2.41;83.81
21401;BME280;18038;50.166;18.908;2023-01-19T10:54:55;96843.91;;;-2.30;84.60
21401;BME280;18038;50.166;18.908;2023-01-19T10:58:04;96849.25;;;-2.21;84.55
21401;BME280;18038;50.166;18.908;2023-01-19T11:01:16;96843.47;;;-2.15;84.30
21401;BME280;18038;50.166;18.908;2023-01-19T11:04:27;96832.06;;;-2.24;84.11
21401;BME280;18038;50.166;18.908;2023-01-19T11:07:36;96845.78;;;-2.12;84.21
21401;BME280;18038;50.166;18.908;2023-01-19T11:10:51;96835.91;;;-2.18;84.16
21401;BME280;18038;50.166;18.908;2023-01-19T11:14:11;96828.31;;;-2.21;84.47
21401;BME280;18038;50.166;18.908;2023-01-19T11:17:23;96819.06;;;-2.43;84.61
21401;BME280;18038;50.166;18.908;2023-01-19T11:20:39;96815.22;;;-2.49;84.95
21401;BME280;18038;50.166;18.908;2023-01-19T11:23:58;96818.25;;;-2.44;85.15
21401;BME280;18038;50.166;18.908;2023-01-19T11:27:07;96819.22;;;-2.45;85.39
21401;BME280;18038;50.166;18.908;2023-01-19T11:30:19;96828.63;;;-2.25;84.98
21401;BME280;18038;50.166;18.908;2023-01-19T11:33:33;96829.28;;;-2.13;84.77
21401;BME280;18038;50.166;18.908;2023-01-19T11:36:55;96826.38;;;-2.10;84.15
21401;BME280;18038;50.166;18.908;2023-01-19T11:40:08;96833.84;;;-2.25;84.58
21401;BME280;18038;50.166;18.908;2023-01-19T11:43:18;96836.13;;;-2.02;84.59
21401;BME280;18038;50.166;18.908;2023-01-19T11:46:32;96828.81;;;-2.08;83.52
21401;BME280;18038;50.166;18.908;2023-01-19T11:49:49;96815.91;;;-2.10;83.88
21401;BME280;18038;50.166;18.908;2023-01-19T11:53:12;96820.03;;;-2.07;83.58
21401;BME280;18038;50.166;18.908;2023-01-19T11:56:28;96825.56;;;-2.10;83.71
21401;BME280;18038;50.166;18.908;2023-01-19T11:59:34;96819.13;;;-1.98;84.03
21401;BME280;18038;50.166;18.908;2023-01-19T12:02:44;96831.31;;;-2.07;83.01
21401;BME280;18038;50.166;18.908;2023-01-19T12:05:58;96826.91;;;-2.06;83.02
21401;BME280;18038;50.166;18.908;2023-01-19T12:09:16;96833.94;;;-2.16;83.71
21401;BME280;18038;50.166;18.908;2023-01-19T12:12:29;96826.78;;;-2.14;84.27
21401;BME280;18038;50.166;18.908;2023-01-19T12:15:42;96828.09;;;-2.28;83.36
21401;BME280;18038;50.166;18.908;2023-01-19T12:18:56;96827.19;;;-2.09;84.46
21401;BME280;18038;50.166;18.908;2023-01-19T12:22:12;96828.16;;;-2.10;83.41
21401;BME280;18038;50.166;18.908;2023-01-19T12:25:25;96831.09;;;-2.23;83.99
21401;BME280;18038;50.166;18.908;2023-01-19T12:28:51;96808.50;;;-2.52;84.00
21401;BME280;18038;50.166;18.908;2023-01-19T12:32:15;96830.00;;;-2.20;84.08
21401;BME280;18038;50.166;18.908;2023-01-19T12:35:54;96834.13;;;-2.28;83.64
21401;BME280;18038;50.166;18.908;2023-01-19T12:39:08;96826.47;;;-2.29;84.48
21401;BME280;18038;50.166;18.908;2023-01-19T12:42:22;96834.31;;;-2.29;84.22
21401;BME280;18038;50.166;18.908;2023-01-19T12:45:35;96843.09;;;-2.30;84.30
21401;BME280;18038;50.166;18.908;2023-01-19T12:48:44;96840.38;;;-2.48;84.30
21401;BME280;18038;50.166;18.908;2023-01-19T12:51:53;96826.22;;;-2.46;84.43
21401;BME280;18038;50.166;18.908;2023-01-19T12:55:21;96825.69;;;-2.49;84.11
21401;BME280;18038;50.166;18.908;2023-01-19T12:58:32;96832.53;;;-2.48;84.25
21401;BME280;18038;50.166;18.908;2023-01-19T13:01:42;96832.03;;;-2.61;84.02
21401;BME280;18038;50.166;18.908;2023-01-19T13:05:08;96836.44;;;-2.52;84.54
21401;BME280;18038;50.166;18.908;2023-01-19T13:08:23;96817.56;;;-2.56;84.38
21401;BME280;18038;50.166;18.908;2023-01-19T13:11:32;96843.97;;;-2.49;84.30
21401;BME280;18038;50.166;18.908;2023-01-19T13:14:41;96854.97;;;-2.36;84.23
21401;BME280;18038;50.166;18.908;2023-01-19T13:17:53;96851.25;;;-2.43;84.06
21401;BME280;18038;50.166;18.908;2023-01-19T13:21:04;96856.25;;;-2.50;84.05
21401;BME280;18038;50.166;18.908;2023-01-19T13:24:15;96858.69;;;-2.38;83.88
21401;BME280;18038;50.166;18.908;2023-01-19T13:27:25;96873.56;;;-2.39;83.92
21401;BME280;18038;50.166;18.908;2023-01-19T13:30:34;96880.66;;;-2.21;84.04
21401;BME280;18038;50.166;18.908;2023-01-19T13:33:49;96872.78;;;-2.21;83.35
21401;BME280;18038;50.166;18.908;2023-01-19T13:36:57;96867.22;;;-2.36;83.65
21401;BME280;18038;50.166;18.908;2023-01-19T13:40:13;96868.91;;;-2.45;84.31
21401;BME280;18038;50.166;18.908;2023-01-19T13:43:27;96880.69;;;-2.31;83.96
21401;BME280;18038;50.166;18.908;2023-01-19T13:46:42;96889.19;;;-2.19;83.50
21401;BME280;18038;50.166;18.908;2023-01-19T13:49:57;96893.59;;;-2.20;83.14
21401;BME280;18038;50.166;18.908;2023-01-19T13:53:15;96881.63;;;-2.32;83.11
21401;BME280;18038;50.166;18.908;2023-01-19T13:56:26;96890.72;;;-2.27;83.28
21401;BME280;18038;50.166;18.908;2023-01-19T13:59:33;96896.78;;;-2.26;83.33
21401;BME280;18038;50.166;18.908;2023-01-19T14:02:41;96898.56;;;-2.27;83.41
21401;BME280;18038;50.166;18.908;2023-01-19T14:06:01;96901.16;;;-2.27;82.90
21401;BME280;18038;50.166;18.908;2023-01-19T14:09:19;96900.53;;;-2.38;82.96
21401;BME280;18038;50.166;18.908;2023-01-19T14:12:26;96919.81;;;-2.39;82.94
21401;BME280;18038;50.166;18.908;2023-01-19T14:15:34;96922.66;;;-2.33;83.31
21401;BME280;18038;50.166;18.908;2023-01-19T14:18:41;96914.69;;;-2.31;82.91
21401;BME280;18038;50.166;18.908;2023-01-19T14:22:01;96915.53;;;-2.40;83.24
21401;BME280;18038;50.166;18.908;2023-01-19T14:25:27;96923.22;;;-2.29;83.23
21401;BME280;18038;50.166;18.908;2023-01-19T14:28:42;96921.28;;;-2.27;83.32
21401;BME280;18038;50.166;18.908;2023-01-19T14:31:51;96915.09;;;-2.36;82.81
21401;BME280;18038;50.166;18.908;2023-01-19T14:35:14;96916.22;;;-2.48;83.13
21401;BME280;18038;50.166;18.908;2023-01-19T14:38:34;96926.13;;;-2.42;83.48
21401;BME280;18038;50.166;18.908;2023-01-19T14:41:45;96931.25;;;-2.50;83.57
21401;BME280;18038;50.166;18.908;2023-01-19T14:44:58;96919.00;;;-2.59;83.60
21401;BME280;18038;50.166;18.908;2023-01-19T14:48:15;96924.50;;;-2.53;84.33
21401;BME280;18038;50.166;18.908;2023-01-19T14:51:26;96915.97;;;-2.45;83.81
21401;BME280;18038;50.166;18.908;2023-01-19T14:54:39;96923.94;;;-2.37;83.70
21401;BME280;18038;50.166;18.908;2023-01-19T14:57:50;96920.63;;;-2.49;83.50
21401;BME280;18038;50.166;18.908;2023-01-19T15:00:56;96925.56;;;-2.46;83.52
21401;BME280;18038;50.166;18.908;2023-01-19T15:04:04;96932.72;;;-2.38;83.60
21401;BME280;18038;50.166;18.908;2023-01-19T15:07:16;96927.53;;;-2.48;83.88
21401;BME280;18038;50.166;18.908;2023-01-19T15:10:26;96911.56;;;-2.64;84.16
21401;BME280;18038;50.166;18.908;2023-01-19T15:13:33;96936.59;;;-2.52;83.88
21401;BME280;18038;50.166;18.908;2023-01-19T15:16:42;96931.66;;;-2.55;84.13
21401;BME280;18038;50.166;18.908;2023-01-19T15:19:48;96928.91;;;-2.63;84.13
21401;BME280;18038;50.166;18.908;2023-01-19T15:22:55;96936.88;;;-2.64;84.52
21401;BME280;18038;50.166;18.908;2023-01-19T15:26:04;96935.63;;;-2.51;84.26
21401;BME280;18038;50.166;18.908;2023-01-19T15:29:22;96928.88;;;-2.53;84.12
21401;BME280;18038;50.166;18.908;2023-01-19T15:32:32;96936.06;;;-2.55;84.18
21401;BME280;18038;50.166;18.908;2023-01-19T15:35:41;96936.59;;;-2.52;84.17
21401;BME280;18038;50.166;18.908;2023-01-19T15:38:47;96939.22;;;-2.42;84.11
21401;BME280;18038;50.166;18.908;2023-01-19T15:41:58;96942.94;;;-2.44;83.69
21401;BME280;18038;50.166;18.908;2023-01-19T15:45:26;96945.84;;;-2.57;83.97
21401;BME280;18038;50.166;18.908;2023-01-19T15:48:38;96942.53;;;-2.59;84.58
21401;BME280;18038;50.166;18.908;2023-01-19T15:51:44;96941.28;;;-2.55;84.47
21401;BME280;18038;50.166;18.908;2023-01-19T15:54:51;96917.47;;;-2.62;84.36
21401;BME280;18038;50.166;18.908;2023-01-19T15:58:00;96944.97;;;-2.48;84.22
21401;BME280;18038;50.166;18.908;2023-01-19T16:01:11;96947.34;;;-2.45;84.17
21401;BME280;18038;50.166;18.908;2023-01-19T16:04:19;96952.81;;;-2.38;83.89
21401;BME280;18038;50.166;18.908;2023-01-19T16:07:26;96952.97;;;-2.50;84.05
21401;BME280;18038;50.166;18.908;2023-01-19T16:10:33;96958.06;;;-2.38;84.01
21401;BME280;18038;50.166;18.908;2023-01-19T16:13:46;96958.91;;;-2.48;84.20
21401;BME280;18038;50.166;18.908;2023-01-19T16:16:52;96969.34;;;-2.28;84.06
21401;BME280;18038;50.166;18.908;2023-01-19T16:20:01;96971.25;;;-2.20;83.49
21401;BME280;18038;50.166;18.908;2023-01-19T16:23:08;96970.16;;;-2.28;82.81
21401;BME280;18038;50.166;18.908;2023-01-19T16:26:29;96968.94;;;-2.23;83.00
21401;BME280;18038;50.166;18.908;2023-01-19T16:29:41;96978.97;;;-2.29;82.89
21401;BME280;18038;50.166;18.908;2023-01-19T16:32:48;96969.88;;;-2.25;83.10
21401;BME280;18038;50.166;18.908;2023-01-19T16:35:54;96979.91;;;-2.20;83.17
21401;BME280;18038;50.166;18.908;2023-01-19T16:39:03;96974.84;;;-2.31;83.14